Terminal Aerodrome Forecast
Issued by NWS Wilmington, OH

Current Version | Previous Version | Graphics & Text | Print | Product List | Glossary Off
Versions: 1 2 3 4 5 6 7 8 9 10 11 12 13 14 15 16 17

000
FTUS41 KILN 050800 AAB
TAFDAY
TAF AMD
KDAY 050802Z 0508/0606 VRB03KT P6SM BKN050
      TEMPO 0508/0509 4SM -SHRA OVC035
     FM050900 22006KT P6SM SCT060 BKN120
     FM051500 23012KT P6SM SCT060
     FM060000 20004KT P6SM SCT080=

USA.gov is the U.S. government's official web portal to all federal, state and local government web resources and services.